sensor_id;sensor_type;location;lat;lon;timestamp;P1;P2;P0
53658;PMS5003;41524;35.624;139.698;2023-01-29T00:00:10;7.00;6.00;
53658;PMS5003;41524;35.624;139.698;2023-01-29T00:05:14;5.00;4.00;
53658;PMS5003;41524;35.624;139.698;2023-01-29T00:10:09;6.00;6.00;
53658;PMS5003;41524;35.624;139.698;2023-01-29T00:15:18;5.00;5.00;
53658;PMS5003;41524;35.624;139.698;2023-01-29T00:20:13;3.00;3.00;
53658;PMS5003;41524;35.624;139.698;2023-01-29T00:25:09;5.00;5.00;
53658;PMS5003;41524;35.624;139.698;2023-01-29T00:30:19;5.00;5.00;
53658;PMS5003;41524;35.624;139.698;2023-01-29T00:35:11;5.00;5.00;
53658;PMS5003;41524;35.624;139.698;2023-01-29T00:40:14;11.00;11.00;
53658;PMS5003;41524;35.624;139.698;2023-01-29T00:45:19;5.00;5.00;
53658;PMS5003;41524;35.624;139.698;2023-01-29T00:50:13;3.00;3.00;
53658;PMS5003;41524;35.624;139.698;2023-01-29T00:55:14;6.00;4.00;
53658;PMS5003;41524;35.624;139.698;2023-01-29T01:00:11;6.00;5.00;
53658;PMS5003;41524;35.624;139.698;2023-01-29T01:05:09;5.00;5.00;
53658;PMS5003;41524;35.624;139.698;2023-01-29T01:10:09;4.00;4.00;
53658;PMS5003;41524;35.624;139.698;2023-01-29T01:15:18;4.00;4.00;
53658;PMS5003;41524;35.624;139.698;2023-01-29T01:20:19;7.00;5.00;
53658;PMS5003;41524;35.624;139.698;2023-01-29T01:25:09;4.00;4.00;
53658;PMS5003;41524;35.624;139.698;2023-01-29T01:30:14;4.00;4.00;
53658;PMS5003;41524;35.624;139.698;2023-01-29T01:35:09;5.00;5.00;
53658;PMS5003;41524;35.624;139.698;2023-01-29T01:40:12;4.00;4.00;
53658;PMS5003;41524;35.624;139.698;2023-01-29T01:45:20;6.00;4.00;
53658;PMS5003;41524;35.624;139.698;2023-01-29T01:50:10;5.00;5.00;
53658;PMS5003;41524;35.624;139.698;2023-01-29T01:55:09;6.00;6.00;
53658;PMS5003;41524;35.624;139.698;2023-01-29T02:00:10;4.00;4.00;
53658;PMS5003;41524;35.624;139.698;2023-01-29T02:05:14;4.00;4.00;
53658;PMS5003;41524;35.624;139.698;2023-01-29T02:10:09;3.00;3.00;
53658;PMS5003;41524;35.624;139.698;2023-01-29T02:15:15;5.00;5.00;
53658;PMS5003;41524;35.624;139.698;2023-01-29T02:20:11;4.00;4.00;
53658;PMS5003;41524;35.624;139.698;2023-01-29T02:25:17;4.00;4.00;
53658;PMS5003;41524;35.624;139.698;2023-01-29T02:30:11;4.00;4.00;
53658;PMS5003;41524;35.624;139.698;2023-01-29T02:35:15;10.00;9.00;
53658;PMS5003;41524;35.624;139.698;2023-01-29T02:40:22;7.00;5.00;
53658;PMS5003;41524;35.624;139.698;2023-01-29T02:45:09;6.00;5.00;
53658;PMS5003;41524;35.624;139.698;2023-01-29T02:50:21;8.00;6.00;
53658;PMS5003;41524;35.624;139.698;2023-01-29T02:55:16;6.00;5.00;
53658;PMS5003;41524;35.624;139.698;2023-01-29T03:00:15;4.00;4.00;
53658;PMS5003;41524;35.624;139.698;2023-01-29T03:05:15;7.00;7.00;
53658;PMS5003;41524;35.624;139.698;2023-01-29T03:10:11;7.00;7.00;
53658;PMS5003;41524;35.624;139.698;2023-01-29T03:15:10;6.00;6.00;
53658;PMS5003;41524;35.624;139.698;2023-01-29T03:20:12;7.00;6.00;
53658;PMS5003;41524;35.624;139.698;2023-01-29T03:25:09;4.00;4.00;
53658;PMS5003;41524;35.624;139.698;2023-01-29T03:30:10;9.00;9.00;
53658;PMS5003;41524;35.624;139.698;2023-01-29T03:35:15;6.00;6.00;
53658;PMS5003;41524;35.624;139.698;2023-01-29T03:40:11;8.00;7.00;
53658;PMS5003;41524;35.624;139.698;2023-01-29T03:45:15;9.00;8.00;
53658;PMS5003;41524;35.624;139.698;2023-01-29T03:50:24;8.00;8.00;
53658;PMS5003;41524;35.624;139.698;2023-01-29T03:55:11;6.00;5.00;
53658;PMS5003;41524;35.624;139.698;2023-01-29T04:00:10;7.00;7.00;
53658;PMS5003;41524;35.624;139.698;2023-01-29T04:05:10;9.00;9.00;
53658;PMS5003;41524;35.624;139.698;2023-01-29T04:10:09;8.00;8.00;
53658;PMS5003;41524;35.624;139.698;2023-01-29T04:15:11;11.00;10.00;
53658;PMS5003;41524;35.624;139.698;2023-01-29T04:20:10;13.00;12.00;
53658;PMS5003;41524;35.624;139.698;2023-01-29T04:25:10;15.00;13.00;
53658;PMS5003;41524;35.624;139.698;2023-01-29T04:30:12;11.00;10.00;
53658;PMS5003;41524;35.624;139.698;2023-01-29T04:35:18;15.00;14.00;
53658;PMS5003;41524;35.624;139.698;2023-01-29T04:40:13;11.00;11.00;
53658;PMS5003;41524;35.624;139.698;2023-01-29T04:45:11;15.00;14.00;
53658;PMS5003;41524;35.624;139.698;2023-01-29T04:50:12;15.00;13.00;
53658;PMS5003;41524;35.624;139.698;2023-01-29T04:55:12;13.00;12.00;
53658;PMS5003;41524;35.624;139.698;2023-01-29T05:00:11;12.00;12.00;
53658;PMS5003;41524;35.624;139.698;2023-01-29T05:05:10;12.00;10.00;
53658;PMS5003;41524;35.624;139.698;2023-01-29T05:10:16;12.00;12.00;
53658;PMS5003;41524;35.624;139.698;2023-01-29T05:15:10;12.00;11.00;
53658;PMS5003;41524;35.624;139.698;2023-01-29T05:20:10;13.00;12.00;
53658;PMS5003;41524;35.624;139.698;2023-01-29T05:25:18;12.00;12.00;
53658;PMS5003;41524;35.624;139.698;2023-01-29T05:30:10;9.00;9.00;
53658;PMS5003;41524;35.624;139.698;2023-01-29T05:35:15;13.00;11.00;
53658;PMS5003;41524;35.624;139.698;2023-01-29T05:40:09;9.00;9.00;
53658;PMS5003;41524;35.624;139.698;2023-01-29T05:45:09;11.00;11.00;
53658;PMS5003;41524;35.624;139.698;2023-01-29T05:50:20;11.00;11.00;
53658;PMS5003;41524;35.624;139.698;2023-01-29T05:55:14;10.00;9.00;
53658;PMS5003;41524;35.624;139.698;2023-01-29T06:00:14;10.00;8.00;
53658;PMS5003;41524;35.624;139.698;2023-01-29T06:05:14;10.00;8.00;
53658;PMS5003;41524;35.624;139.698;2023-01-29T06:10:15;11.00;9.00;
53658;PMS5003;41524;35.624;139.698;2023-01-29T06:15:16;9.00;9.00;
53658;PMS5003;41524;35.624;139.698;2023-01-29T06:20:09;15.00;13.00;
53658;PMS5003;41524;35.624;139.698;2023-01-29T06:25:10;10.00;10.00;
53658;PMS5003;41524;35.624;139.698;2023-01-29T06:30:11;8.00;8.00;
53658;PMS5003;41524;35.624;139.698;2023-01-29T06:35:08;11.00;8.00;
53658;PMS5003;41524;35.624;139.698;2023-01-29T06:40:09;17.00;15.00;
53658;PMS5003;41524;35.624;139.698;2023-01-29T06:45:09;11.00;10.00;
53658;PMS5003;41524;35.624;139.698;2023-01-29T06:50:09;17.00;16.00;
53658;PMS5003;41524;35.624;139.698;2023-01-29T06:55:11;20.00;17.00;
53658;PMS5003;41524;35.624;139.698;2023-01-29T07:00:10;13.00;13.00;
53658;PMS5003;41524;35.624;139.698;2023-01-29T07:05:09;23.00;21.00;
53658;PMS5003;41524;35.624;139.698;2023-01-29T07:10:09;17.00;16.00;
53658;PMS5003;41524;35.624;139.698;2023-01-29T07:15:10;15.00;15.00;
53658;PMS5003;41524;35.624;139.698;2023-01-29T07:20:09;21.00;17.00;
53658;PMS5003;41524;35.624;139.698;2023-01-29T07:25:10;21.00;20.00;
53658;PMS5003;41524;35.624;139.698;2023-01-29T07:30:10;19.00;18.00;
53658;PMS5003;41524;35.624;139.698;2023-01-29T07:35:14;18.00;17.00;
53658;PMS5003;41524;35.624;139.698;2023-01-29T07:40:10;17.00;17.00;
53658;PMS5003;41524;35.624;139.698;2023-01-29T07:45:09;24.00;22.00;
53658;PMS5003;41524;35.624;139.698;2023-01-29T07:50:10;22.00;20.00;
53658;PMS5003;41524;35.624;139.698;2023-01-29T07:55:15;30.00;25.00;
53658;PMS5003;41524;35.624;139.698;2023-01-29T08:00:09;23.00;23.00;
53658;PMS5003;41524;35.624;139.698;2023-01-29T08:05:15;22.00;20.00;
53658;PMS5003;41524;35.624;139.698;2023-01-29T08:10:15;17.00;15.00;
53658;PMS5003;41524;35.624;139.698;2023-01-29T08:15:14;29.00;22.00;
53658;PMS5003;41524;35.624;139.698;2023-01-29T08:20:14;21.00;20.00;
53658;PMS5003;41524;35.624;139.698;2023-01-29T08:25:08;22.00;19.00;
53658;PMS5003;41524;35.624;139.698;2023-01-29T08:30:10;19.00;19.00;
53658;PMS5003;41524;35.624;139.698;2023-01-29T08:35:21;21.00;19.00;
53658;PMS5003;41524;35.624;139.698;2023-01-29T08:40:09;17.00;17.00;
53658;PMS5003;41524;35.624;139.698;2023-01-29T08:45:11;19.00;19.00;
53658;PMS5003;41524;35.624;139.698;2023-01-29T08:50:09;18.00;18.00;
53658;PMS5003;41524;35.624;139.698;2023-01-29T08:55:14;20.00;17.00;
53658;PMS5003;41524;35.624;139.698;2023-01-29T09:00:10;21.00;20.00;
53658;PMS5003;41524;35.624;139.698;2023-01-29T09:05:14;18.00;17.00;
53658;PMS5003;41524;35.624;139.698;2023-01-29T09:10:09;21.00;18.00;
53658;PMS5003;41524;35.624;139.698;2023-01-29T09:15:10;21.00;18.00;
53658;PMS5003;41524;35.624;139.698;2023-01-29T09:20:14;33.00;30.00;
53658;PMS5003;41524;35.624;139.698;2023-01-29T09:25:08;24.00;24.00;
53658;PMS5003;41524;35.624;139.698;2023-01-29T09:30:09;17.00;17.00;
53658;PMS5003;41524;35.624;139.698;2023-01-29T09:35:09;23.00;23.00;
53658;PMS5003;41524;35.624;139.698;2023-01-29T09:40:17;26.00;26.00;
53658;PMS5003;41524;35.624;139.698;2023-01-29T09:45:11;23.00;23.00;
53658;PMS5003;41524;35.624;139.698;2023-01-29T09:50:22;25.00;25.00;
53658;PMS5003;41524;35.624;139.698;2023-01-29T09:55:20;28.00;24.00;
53658;PMS5003;41524;35.624;139.698;2023-01-29T10:00:12;31.00;27.00;
53658;PMS5003;41524;35.624;139.698;2023-01-29T10:05:21;32.00;28.00;
53658;PMS5003;41524;35.624;139.698;2023-01-29T10:10:18;30.00;28.00;
53658;PMS5003;41524;35.624;139.698;2023-01-29T10:15:12;25.00;23.00;
53658;PMS5003;41524;35.624;139.698;2023-01-29T10:20:14;24.00;20.00;
53658;PMS5003;41524;35.624;139.698;2023-01-29T10:25:10;26.00;22.00;
53658;PMS5003;41524;35.624;139.698;2023-01-29T10:30:18;32.00;26.00;
53658;PMS5003;41524;35.624;139.698;2023-01-29T10:35:14;22.00;22.00;
53658;PMS5003;41524;35.624;139.698;2023-01-29T10:40:17;26.00;20.00;
53658;PMS5003;41524;35.624;139.698;2023-01-29T10:45:13;19.00;19.00;
53658;PMS5003;41524;35.624;139.698;2023-01-29T10:50:11;21.00;20.00;
53658;PMS5003;41524;35.624;139.698;2023-01-29T10:55:19;23.00;21.00;
53658;PMS5003;41524;35.624;139.698;2023-01-29T11:00:16;26.00;22.00;
53658;PMS5003;41524;35.624;139.698;2023-01-29T11:05:21;27.00;26.00;
53658;PMS5003;41524;35.624;139.698;2023-01-29T11:10:20;30.00;27.00;
53658;PMS5003;41524;35.624;139.698;2023-01-29T11:15:21;28.00;25.00;
53658;PMS5003;41524;35.624;139.698;2023-01-29T11:20:24;30.00;26.00;
53658;PMS5003;41524;35.624;139.698;2023-01-29T11:25:14;29.00;26.00;
53658;PMS5003;41524;35.624;139.698;2023-01-29T11:30:22;22.00;19.00;
53658;PMS5003;41524;35.624;139.698;2023-01-29T11:35:19;25.00;21.00;
53658;PMS5003;41524;35.624;139.698;2023-01-29T11:40:50;27.00;24.00;
53658;PMS5003;41524;35.624;139.698;2023-01-29T11:45:17;22.00;21.00;
53658;PMS5003;41524;35.624;139.698;2023-01-29T11:55:15;17.00;17.00;
53658;PMS5003;41524;35.624;139.698;2023-01-29T12:00:15;20.00;18.00;
53658;PMS5003;41524;35.624;139.698;2023-01-29T12:05:21;33.00;28.00;
53658;PMS5003;41524;35.624;139.698;2023-01-29T12:10:28;26.00;25.00;
53658;PMS5003;41524;35.624;139.698;2023-01-29T12:15:17;23.00;22.00;
53658;PMS5003;41524;35.624;139.698;2023-01-29T12:20:10;28.00;26.00;
53658;PMS5003;41524;35.624;139.698;2023-01-29T12:25:17;29.00;26.00;
53658;PMS5003;41524;35.624;139.698;2023-01-29T12:30:13;26.00;24.00;
53658;PMS5003;41524;35.624;139.698;2023-01-29T12:35:11;19.00;17.00;
53658;PMS5003;41524;35.624;139.698;2023-01-29T12:40:11;19.00;18.00;
53658;PMS5003;41524;35.624;139.698;2023-01-29T12:45:16;18.00;14.00;
53658;PMS5003;41524;35.624;139.698;2023-01-29T12:50:13;20.00;19.00;
53658;PMS5003;41524;35.624;139.698;2023-01-29T12:55:12;22.00;19.00;
53658;PMS5003;41524;35.624;139.698;2023-01-29T13:00:21;17.00;17.00;
53658;PMS5003;41524;35.624;139.698;2023-01-29T13:05:17;29.00;25.00;
53658;PMS5003;41524;35.624;139.698;2023-01-29T13:10:10;20.00;20.00;
53658;PMS5003;41524;35.624;139.698;2023-01-29T13:15:14;23.00;21.00;
53658;PMS5003;41524;35.624;139.698;2023-01-29T13:20:11;20.00;19.00;
53658;PMS5003;41524;35.624;139.698;2023-01-29T13:25:14;21.00;19.00;
53658;PMS5003;41524;35.624;139.698;2023-01-29T13:30:21;22.00;19.00;
53658;PMS5003;41524;35.624;139.698;2023-01-29T13:35:11;24.00;23.00;
53658;PMS5003;41524;35.624;139.698;2023-01-29T13:40:20;34.00;31.00;
53658;PMS5003;41524;35.624;139.698;2023-01-29T13:45:16;35.00;32.00;
53658;PMS5003;41524;35.624;139.698;2023-01-29T13:50:19;35.00;33.00;
53658;PMS5003;41524;35.624;139.698;2023-01-29T13:55:19;41.00;35.00;
53658;PMS5003;41524;35.624;139.698;2023-01-29T14:00:10;36.00;34.00;
53658;PMS5003;41524;35.624;139.698;2023-01-29T14:05:42;35.00;34.00;
53658;PMS5003;41524;35.624;139.698;2023-01-29T14:10:13;35.00;33.00;
53658;PMS5003;41524;35.624;139.698;2023-01-29T14:15:16;43.00;33.00;
53658;PMS5003;41524;35.624;139.698;2023-01-29T14:20:16;38.00;33.00;
53658;PMS5003;41524;35.624;139.698;2023-01-29T14:25:15;45.00;38.00;
53658;PMS5003;41524;35.624;139.698;2023-01-29T14:30:13;44.00;36.00;
53658;PMS5003;41524;35.624;139.698;2023-01-29T14:35:15;42.00;34.00;
53658;PMS5003;41524;35.624;139.698;2023-01-29T14:40:17;29.00;29.00;
53658;PMS5003;41524;35.624;139.698;2023-01-29T14:45:21;40.00;37.00;
53658;PMS5003;41524;35.624;139.698;2023-01-29T14:50:36;34.00;30.00;
53658;PMS5003;41524;35.624;139.698;2023-01-29T14:55:14;43.00;39.00;
53658;PMS5003;41524;35.624;139.698;2023-01-29T15:00:16;35.00;31.00;
53658;PMS5003;41524;35.624;139.698;2023-01-29T15:05:16;34.00;32.00;
53658;PMS5003;41524;35.624;139.698;2023-01-29T15:10:16;40.00;39.00;
53658;PMS5003;41524;35.624;139.698;2023-01-29T15:15:12;43.00;38.00;
53658;PMS5003;41524;35.624;139.698;2023-01-29T15:20:41;33.00;31.00;
53658;PMS5003;41524;35.624;139.698;2023-01-29T15:25:18;48.00;43.00;
53658;PMS5003;41524;35.624;139.698;2023-01-29T15:30:13;30.00;28.00;
53658;PMS5003;41524;35.624;139.698;2023-01-29T15:35:18;40.00;35.00;
53658;PMS5003;41524;35.624;139.698;2023-01-29T15:40:12;37.00;33.00;
53658;PMS5003;41524;35.624;139.698;2023-01-29T15:45:20;31.00;27.00;
53658;PMS5003;41524;35.624;139.698;2023-01-29T15:50:11;38.00;35.00;
53658;PMS5003;41524;35.624;139.698;2023-01-29T15:55:09;43.00;33.00;
53658;PMS5003;41524;35.624;139.698;2023-01-29T16:00:18;35.00;35.00;
53658;PMS5003;41524;35.624;139.698;2023-01-29T16:05:12;31.00;29.00;
53658;PMS5003;41524;35.624;139.698;2023-01-29T16:10:13;39.00;34.00;
53658;PMS5003;41524;35.624;139.698;2023-01-29T16:15:11;38.00;34.00;
53658;PMS5003;41524;35.624;139.698;2023-01-29T16:20:28;36.00;35.00;
53658;PMS5003;41524;35.624;139.698;2023-01-29T16:25:10;31.00;30.00;
53658;PMS5003;41524;35.624;139.698;2023-01-29T16:30:12;37.00;28.00;
53658;PMS5003;41524;35.624;139.698;2023-01-29T16:35:14;39.00;37.00;
53658;PMS5003;41524;35.624;139.698;2023-01-29T16:40:14;33.00;28.00;
53658;PMS5003;41524;35.624;139.698;2023-01-29T16:45:24;36.00;32.00;
53658;PMS5003;41524;35.624;139.698;2023-01-29T16:50:22;31.00;29.00;
53658;PMS5003;41524;35.624;139.698;2023-01-29T16:55:24;39.00;36.00;
53658;PMS5003;41524;35.624;139.698;2023-01-29T17:00:17;41.00;40.00;
53658;PMS5003;41524;35.624;139.698;2023-01-29T17:05:15;37.00;35.00;
53658;PMS5003;41524;35.624;139.698;2023-01-29T17:10:15;45.00;35.00;
53658;PMS5003;41524;35.624;139.698;2023-01-29T17:15:26;39.00;35.00;
53658;PMS5003;41524;35.624;139.698;2023-01-29T17:20:10;48.00;43.00;
53658;PMS5003;41524;35.624;139.698;2023-01-29T17:25:12;42.00;41.00;
53658;PMS5003;41524;35.624;139.698;2023-01-29T17:30:12;33.00;30.00;
53658;PMS5003;41524;35.624;139.698;2023-01-29T17:35:11;39.00;31.00;
53658;PMS5003;41524;35.624;139.698;2023-01-29T17:40:13;41.00;38.00;
53658;PMS5003;41524;35.624;139.698;2023-01-29T17:45:09;29.00;23.00;
53658;PMS5003;41524;35.624;139.698;2023-01-29T17:50:13;37.00;34.00;
53658;PMS5003;41524;35.624;139.698;2023-01-29T17:55:10;36.00;36.00;
53658;PMS5003;41524;35.624;139.698;2023-01-29T18:00:12;30.00;30.00;
53658;PMS5003;41524;35.624;139.698;2023-01-29T18:05:12;33.00;29.00;
53658;PMS5003;41524;35.624;139.698;2023-01-29T18:10:11;28.00;24.00;
53658;PMS5003;41524;35.624;139.698;2023-01-29T18:15:09;27.00;26.00;
53658;PMS5003;41524;35.624;139.698;2023-01-29T18:20:15;29.00;24.00;
53658;PMS5003;41524;35.624;139.698;2023-01-29T18:25:09;22.00;22.00;
53658;PMS5003;41524;35.624;139.698;2023-01-29T18:30:10;29.00;26.00;
53658;PMS5003;41524;35.624;139.698;2023-01-29T18:35:09;29.00;28.00;
53658;PMS5003;41524;35.624;139.698;2023-01-29T18:40:10;22.00;18.00;
53658;PMS5003;41524;35.624;139.698;2023-01-29T18:45:09;30.00;29.00;
53658;PMS5003;41524;35.624;139.698;2023-01-29T18:50:10;28.00;27.00;
53658;PMS5003;41524;35.624;139.698;2023-01-29T18:55:09;24.00;22.00;
53658;PMS5003;41524;35.624;139.698;2023-01-29T19:00:11;27.00;25.00;
53658;PMS5003;41524;35.624;139.698;2023-01-29T19:05:10;30.00;21.00;
53658;PMS5003;41524;35.624;139.698;2023-01-29T19:10:09;34.00;32.00;
53658;PMS5003;41524;35.624;139.698;2023-01-29T19:15:11;24.00;22.00;
53658;PMS5003;41524;35.624;139.698;2023-01-29T19:20:10;20.00;19.00;
53658;PMS5003;41524;35.624;139.698;2023-01-29T19:25:09;31.00;27.00;
53658;PMS5003;41524;35.624;139.698;2023-01-29T19:30:09;22.00;21.00;
53658;PMS5003;41524;35.624;139.698;2023-01-29T19:35:09;26.00;25.00;
53658;PMS5003;41524;35.624;139.698;2023-01-29T19:40:15;25.00;24.00;
53658;PMS5003;41524;35.624;139.698;2023-01-29T19:45:09;22.00;20.00;
53658;PMS5003;41524;35.624;139.698;2023-01-29T19:50:09;25.00;25.00;
53658;PMS5003;41524;35.624;139.698;2023-01-29T19:55:09;18.00;18.00;
53658;PMS5003;41524;35.624;139.698;2023-01-29T20:00:10;17.00;17.00;
53658;PMS5003;41524;35.624;139.698;2023-01-29T20:05:09;17.00;17.00;
53658;PMS5003;41524;35.624;139.698;2023-01-29T20:10:10;19.00;17.00;
53658;PMS5003;41524;35.624;139.698;2023-01-29T20:15:11;25.00;21.00;
53658;PMS5003;41524;35.624;139.698;2023-01-29T20:20:09;20.00;19.00;
53658;PMS5003;41524;35.624;139.698;2023-01-29T20:25:09;20.00;19.00;
53658;PMS5003;41524;35.624;139.698;2023-01-29T20:30:09;21.00;16.00;
53658;PMS5003;41524;35.624;139.698;2023-01-29T20:35:09;23.00;21.00;
53658;PMS5003;41524;35.624;139.698;2023-01-29T20:40:10;16.00;15.00;
53658;PMS5003;41524;35.624;139.698;2023-01-29T20:45:10;27.00;24.00;
53658;PMS5003;41524;35.624;139.698;2023-01-29T20:50:10;24.00;20.00;
53658;PMS5003;41524;35.624;139.698;2023-01-29T20:55:16;24.00;20.00;
53658;PMS5003;41524;35.624;139.698;2023-01-29T21:00:13;19.00;17.00;
53658;PMS5003;41524;35.624;139.698;2023-01-29T21:05:10;19.00;18.00;
53658;PMS5003;41524;35.624;139.698;2023-01-29T21:10:11;18.00;17.00;
53658;PMS5003;41524;35.624;139.698;2023-01-29T21:15:09;20.00;18.00;
53658;PMS5003;41524;35.624;139.698;2023-01-29T21:20:09;19.00;19.00;
53658;PMS5003;41524;35.624;139.698;2023-01-29T21:25:15;20.00;19.00;
53658;PMS5003;41524;35.624;139.698;2023-01-29T21:30:10;19.00;18.00;
53658;PMS5003;41524;35.624;139.698;2023-01-29T21:35:10;25.00;24.00;
53658;PMS5003;41524;35.624;139.698;2023-01-29T21:40:09;19.00;18.00;
53658;PMS5003;41524;35.624;139.698;2023-01-29T21:45:10;20.00;17.00;
53658;PMS5003;41524;35.624;139.698;2023-01-29T21:50:11;24.00;24.00;
53658;PMS5003;41524;35.624;139.698;2023-01-29T21:55:15;22.00;19.00;
53658;PMS5003;41524;35.624;139.698;2023-01-29T22:00:09;21.00;21.00;
53658;PMS5003;41524;35.624;139.698;2023-01-29T22:05:08;22.00;22.00;
53658;PMS5003;41524;35.624;139.698;2023-01-29T22:10:10;20.00;19.00;
53658;PMS5003;41524;35.624;139.698;2023-01-29T22:15:10;26.00;26.00;
53658;PMS5003;41524;35.624;139.698;2023-01-29T22:20:10;21.00;19.00;
53658;PMS5003;41524;35.624;139.698;2023-01-29T22:25:09;18.00;17.00;
53658;PMS5003;41524;35.624;139.698;2023-01-29T22:30:10;27.00;26.00;
53658;PMS5003;41524;35.624;139.698;2023-01-29T22:35:18;26.00;22.00;
53658;PMS5003;41524;35.624;139.698;2023-01-29T22:40:10;32.00;30.00;
53658;PMS5003;41524;35.624;139.698;2023-01-29T22:45:09;37.00;36.00;
53658;PMS5003;41524;35.624;139.698;2023-01-29T22:50:11;37.00;33.00;
53658;PMS5003;41524;35.624;139.698;2023-01-29T22:55:09;38.00;34.00;
53658;PMS5003;41524;35.624;139.698;2023-01-29T23:00:14;49.00;41.00;
53658;PMS5003;41524;35.624;139.698;2023-01-29T23:05:15;98.00;92.00;
53658;PMS5003;41524;35.624;139.698;2023-01-29T23:10:09;26.00;21.00;
53658;PMS5003;41524;35.624;139.698;2023-01-29T23:15:09;26.00;24.00;
53658;PMS5003;41524;35.624;139.698;2023-01-29T23:20:14;22.00;21.00;
53658;PMS5003;41524;35.624;139.698;2023-01-29T23:25:10;19.00;19.00;
53658;PMS5003;41524;35.624;139.698;2023-01-29T23:30:09;25.00;24.00;
53658;PMS5003;41524;35.624;139.698;2023-01-29T23:35:11;23.00;21.00;
53658;PMS5003;41524;35.624;139.698;2023-01-29T23:40:12;24.00;22.00;
53658;PMS5003;41524;35.624;139.698;2023-01-29T23:45:09;20.00;19.00;
53658;PMS5003;41524;35.624;139.698;2023-01-29T23:50:10;20.00;19.00;
53658;PMS5003;41524;35.624;139.698;2023-01-29T23:55:09;17.00;17.00;
